sensor_id;sensor_type;location;lat;lon;timestamp;P1;durP1;ratioP1;P2;durP2;ratioP2
51636;SDS011;37713;53.254;6.460;2023-02-15T00:01:19;31.33;;;17.98;;
51636;SDS011;37713;53.254;6.460;2023-02-15T00:03:44;35.22;;;17.90;;
51636;SDS011;37713;53.254;6.460;2023-02-15T00:06:16;30.67;;;17.48;;
51636;SDS011;37713;53.254;6.460;2023-02-15T00:08:42;30.17;;;17.80;;
51636;SDS011;37713;53.254;6.460;2023-02-15T00:11:15;30.95;;;18.52;;
51636;SDS011;37713;53.254;6.460;2023-02-15T00:14:02;27.17;;;18.17;;
51636;SDS011;37713;53.254;6.460;2023-02-15T00:16:30;27.40;;;17.67;;
51636;SDS011;37713;53.254;6.460;2023-02-15T00:18:56;30.13;;;18.52;;
51636;SDS011;37713;53.254;6.460;2023-02-15T00:21:22;33.63;;;20.02;;
51636;SDS011;37713;53.254;6.460;2023-02-15T00:23:47;31.33;;;18.33;;
51636;SDS011;37713;53.254;6.460;2023-02-15T00:26:13;35.92;;;18.27;;
51636;SDS011;37713;53.254;6.460;2023-02-15T00:28:39;35.85;;;19.95;;
51636;SDS011;37713;53.254;6.460;2023-02-15T00:31:05;45.97;;;19.55;;
51636;SDS011;37713;53.254;6.460;2023-02-15T00:33:32;36.20;;;18.20;;
51636;SDS011;37713;53.254;6.460;2023-02-15T00:35:59;37.83;;;20.50;;
51636;SDS011;37713;53.254;6.460;2023-02-15T00:38:26;49.22;;;20.65;;
51636;SDS011;37713;53.254;6.460;2023-02-15T00:41:00;34.95;;;19.83;;
51636;SDS011;37713;53.254;6.460;2023-02-15T00:43:28;35.40;;;20.05;;
51636;SDS011;37713;53.254;6.460;2023-02-15T00:45:55;28.05;;;19.95;;
51636;SDS011;37713;53.254;6.460;2023-02-15T00:48:21;36.25;;;21.00;;
51636;SDS011;37713;53.254;6.460;2023-02-15T00:50:51;32.10;;;19.67;;
51636;SDS011;37713;53.254;6.460;2023-02-15T00:53:18;37.92;;;21.05;;
51636;SDS011;37713;53.254;6.460;2023-02-15T00:55:44;70.88;;;24.17;;
51636;SDS011;37713;53.254;6.460;2023-02-15T00:58:10;36.90;;;21.90;;
51636;SDS011;37713;53.254;6.460;2023-02-15T01:00:37;40.58;;;24.08;;
51636;SDS011;37713;53.254;6.460;2023-02-15T01:03:03;53.53;;;25.83;;
51636;SDS011;37713;53.254;6.460;2023-02-15T01:05:30;46.85;;;26.23;;
51636;SDS011;37713;53.254;6.460;2023-02-15T01:07:57;50.40;;;28.05;;
51636;SDS011;37713;53.254;6.460;2023-02-15T01:10:23;49.67;;;26.92;;
51636;SDS011;37713;53.254;6.460;2023-02-15T01:12:50;54.53;;;28.80;;
51636;SDS011;37713;53.254;6.460;2023-02-15T01:15:16;54.63;;;27.48;;
51636;SDS011;37713;53.254;6.460;2023-02-15T01:17:42;71.70;;;28.67;;
51636;SDS011;37713;53.254;6.460;2023-02-15T01:20:11;117.95;;;30.80;;
51636;SDS011;37713;53.254;6.460;2023-02-15T01:22:37;48.05;;;25.65;;
51636;SDS011;37713;53.254;6.460;2023-02-15T01:25:02;118.47;;;30.23;;
51636;SDS011;37713;53.254;6.460;2023-02-15T01:27:29;60.33;;;28.75;;
51636;SDS011;37713;53.254;6.460;2023-02-15T01:29:56;69.55;;;30.23;;
51636;SDS011;37713;53.254;6.460;2023-02-15T01:32:22;94.93;;;29.63;;
51636;SDS011;37713;53.254;6.460;2023-02-15T01:34:48;53.70;;;28.75;;
51636;SDS011;37713;53.254;6.460;2023-02-15T01:37:14;48.78;;;24.48;;
51636;SDS011;37713;53.254;6.460;2023-02-15T01:39:39;47.20;;;24.73;;
51636;SDS011;37713;53.254;6.460;2023-02-15T01:42:05;73.75;;;27.55;;
51636;SDS011;37713;53.254;6.460;2023-02-15T01:47:16;46.50;;;25.02;;
51636;SDS011;37713;53.254;6.460;2023-02-15T01:53:01;62.10;;;27.00;;
51636;SDS011;37713;53.254;6.460;2023-02-15T01:55:35;48.20;;;26.25;;
51636;SDS011;37713;53.254;6.460;2023-02-15T01:58:04;52.50;;;26.83;;
51636;SDS011;37713;53.254;6.460;2023-02-15T02:00:30;70.00;;;27.75;;
51636;SDS011;37713;53.254;6.460;2023-02-15T02:02:58;66.35;;;26.83;;
51636;SDS011;37713;53.254;6.460;2023-02-15T02:05:24;42.58;;;24.20;;
51636;SDS011;37713;53.254;6.460;2023-02-15T02:07:50;63.20;;;26.35;;
51636;SDS011;37713;53.254;6.460;2023-02-15T02:10:19;54.15;;;26.35;;
51636;SDS011;37713;53.254;6.460;2023-02-15T02:12:47;48.17;;;23.80;;
51636;SDS011;37713;53.254;6.460;2023-02-15T02:15:15;43.95;;;23.80;;
51636;SDS011;37713;53.254;6.460;2023-02-15T02:23:27;65.00;;;22.02;;
51636;SDS011;37713;53.254;6.460;2023-02-15T02:35:01;114.80;;;48.28;;
51636;SDS011;37713;53.254;6.460;2023-02-15T02:37:34;90.78;;;43.50;;
51636;SDS011;37713;53.254;6.460;2023-02-15T02:43:05;72.20;;;36.95;;
51636;SDS011;37713;53.254;6.460;2023-02-15T02:45:39;92.80;;;39.20;;
51636;SDS011;37713;53.254;6.460;2023-02-15T02:48:18;58.58;;;33.50;;
51636;SDS011;37713;53.254;6.460;2023-02-15T02:50:46;76.07;;;34.90;;
51636;SDS011;37713;53.254;6.460;2023-02-15T02:53:12;82.95;;;32.22;;
51636;SDS011;37713;53.254;6.460;2023-02-15T02:55:55;62.63;;;29.45;;
51636;SDS011;37713;53.254;6.460;2023-02-15T02:58:26;45.88;;;25.15;;
51636;SDS011;37713;53.254;6.460;2023-02-15T03:02:01;48.75;;;23.38;;
51636;SDS011;37713;53.254;6.460;2023-02-15T03:04:19;38.00;;;22.50;;
51636;SDS011;37713;53.254;6.460;2023-02-15T03:06:57;46.95;;;21.55;;
51636;SDS011;37713;53.254;6.460;2023-02-15T03:09:34;34.67;;;21.70;;
51636;SDS011;37713;53.254;6.460;2023-02-15T03:12:11;37.58;;;19.92;;
51636;SDS011;37713;53.254;6.460;2023-02-15T03:14:40;39.85;;;20.77;;
51636;SDS011;37713;53.254;6.460;2023-02-15T03:17:07;35.55;;;20.58;;
51636;SDS011;37713;53.254;6.460;2023-02-15T03:19:35;33.45;;;20.35;;
51636;SDS011;37713;53.254;6.460;2023-02-15T03:22:06;31.88;;;20.25;;
51636;SDS011;37713;53.254;6.460;2023-02-15T03:27:43;40.53;;;20.73;;
51636;SDS011;37713;53.254;6.460;2023-02-15T03:30:13;45.30;;;21.05;;
51636;SDS011;37713;53.254;6.460;2023-02-15T03:32:45;40.05;;;20.33;;
51636;SDS011;37713;53.254;6.460;2023-02-15T03:35:13;40.00;;;20.52;;
51636;SDS011;37713;53.254;6.460;2023-02-15T03:37:51;40.28;;;20.63;;
51636;SDS011;37713;53.254;6.460;2023-02-15T03:45:38;34.15;;;20.33;;
51636;SDS011;37713;53.254;6.460;2023-02-15T03:48:21;35.40;;;20.67;;
51636;SDS011;37713;53.254;6.460;2023-02-15T03:50:51;32.70;;;20.48;;
51636;SDS011;37713;53.254;6.460;2023-02-15T03:53:38;33.28;;;21.70;;
51636;SDS011;37713;53.254;6.460;2023-02-15T03:56:05;33.67;;;21.08;;
51636;SDS011;37713;53.254;6.460;2023-02-15T03:58:31;34.13;;;20.67;;
51636;SDS011;37713;53.254;6.460;2023-02-15T04:04:33;39.30;;;22.33;;
51636;SDS011;37713;53.254;6.460;2023-02-15T04:07:04;37.83;;;22.00;;
51636;SDS011;37713;53.254;6.460;2023-02-15T04:09:32;40.35;;;21.40;;
51636;SDS011;37713;53.254;6.460;2023-02-15T04:12:16;36.13;;;21.83;;
51636;SDS011;37713;53.254;6.460;2023-02-15T04:14:42;39.67;;;22.73;;
51636;SDS011;37713;53.254;6.460;2023-02-15T04:17:27;39.92;;;22.15;;
51636;SDS011;37713;53.254;6.460;2023-02-15T04:19:53;33.45;;;21.95;;
51636;SDS011;37713;53.254;6.460;2023-02-15T04:22:37;36.05;;;21.77;;
51636;SDS011;37713;53.254;6.460;2023-02-15T04:25:21;35.67;;;21.70;;
51636;SDS011;37713;53.254;6.460;2023-02-15T04:27:51;35.65;;;22.60;;
51636;SDS011;37713;53.254;6.460;2023-02-15T04:30:19;37.22;;;22.10;;
51636;SDS011;37713;53.254;6.460;2023-02-15T04:32:47;36.63;;;23.25;;
51636;SDS011;37713;53.254;6.460;2023-02-15T04:35:13;34.40;;;23.30;;
51636;SDS011;37713;53.254;6.460;2023-02-15T04:37:40;38.50;;;23.73;;
51636;SDS011;37713;53.254;6.460;2023-02-15T04:40:08;34.28;;;22.73;;
51636;SDS011;37713;53.254;6.460;2023-02-15T04:42:35;37.70;;;24.00;;
51636;SDS011;37713;53.254;6.460;2023-02-15T04:45:02;34.72;;;22.25;;
51636;SDS011;37713;53.254;6.460;2023-02-15T04:47:28;35.65;;;22.60;;
51636;SDS011;37713;53.254;6.460;2023-02-15T04:49:54;38.72;;;22.77;;
51636;SDS011;37713;53.254;6.460;2023-02-15T04:52:19;50.17;;;23.98;;
51636;SDS011;37713;53.254;6.460;2023-02-15T04:54:45;50.78;;;25.90;;
51636;SDS011;37713;53.254;6.460;2023-02-15T04:57:11;43.53;;;25.23;;
51636;SDS011;37713;53.254;6.460;2023-02-15T04:59:37;42.72;;;27.05;;
51636;SDS011;37713;53.254;6.460;2023-02-15T05:02:03;43.83;;;26.77;;
51636;SDS011;37713;53.254;6.460;2023-02-15T05:04:29;51.67;;;27.85;;
51636;SDS011;37713;53.254;6.460;2023-02-15T05:06:54;52.50;;;28.35;;
51636;SDS011;37713;53.254;6.460;2023-02-15T05:09:20;65.13;;;27.83;;
51636;SDS011;37713;53.254;6.460;2023-02-15T05:11:46;53.60;;;26.30;;
51636;SDS011;37713;53.254;6.460;2023-02-15T05:14:12;46.35;;;24.38;;
51636;SDS011;37713;53.254;6.460;2023-02-15T05:16:38;48.30;;;25.65;;
51636;SDS011;37713;53.254;6.460;2023-02-15T05:19:03;62.50;;;28.23;;
51636;SDS011;37713;53.254;6.460;2023-02-15T05:21:29;69.45;;;33.40;;
51636;SDS011;37713;53.254;6.460;2023-02-15T05:23:56;87.80;;;39.60;;
51636;SDS011;37713;53.254;6.460;2023-02-15T05:26:22;104.35;;;43.80;;
51636;SDS011;37713;53.254;6.460;2023-02-15T05:29:08;84.43;;;39.33;;
51636;SDS011;37713;53.254;6.460;2023-02-15T05:31:34;87.18;;;37.15;;
51636;SDS011;37713;53.254;6.460;2023-02-15T05:34:00;71.97;;;34.88;;
51636;SDS011;37713;53.254;6.460;2023-02-15T05:36:26;55.92;;;30.98;;
51636;SDS011;37713;53.254;6.460;2023-02-15T05:38:54;58.33;;;30.38;;
51636;SDS011;37713;53.254;6.460;2023-02-15T05:41:20;50.47;;;28.17;;
51636;SDS011;37713;53.254;6.460;2023-02-15T05:43:49;51.17;;;27.97;;
51636;SDS011;37713;53.254;6.460;2023-02-15T05:46:15;49.15;;;28.00;;
51636;SDS011;37713;53.254;6.460;2023-02-15T05:48:40;50.08;;;27.83;;
51636;SDS011;37713;53.254;6.460;2023-02-15T05:51:10;53.92;;;28.48;;
51636;SDS011;37713;53.254;6.460;2023-02-15T05:53:38;50.95;;;27.63;;
51636;SDS011;37713;53.254;6.460;2023-02-15T05:56:06;51.90;;;27.00;;
51636;SDS011;37713;53.254;6.460;2023-02-15T05:58:35;57.50;;;28.63;;
51636;SDS011;37713;53.254;6.460;2023-02-15T06:01:10;52.22;;;27.60;;
51636;SDS011;37713;53.254;6.460;2023-02-15T06:03:36;51.67;;;28.10;;
51636;SDS011;37713;53.254;6.460;2023-02-15T06:06:02;62.92;;;29.75;;
51636;SDS011;37713;53.254;6.460;2023-02-15T06:08:29;56.15;;;30.30;;
51636;SDS011;37713;53.254;6.460;2023-02-15T06:10:56;50.03;;;28.55;;
51636;SDS011;37713;53.254;6.460;2023-02-15T06:13:22;57.40;;;29.45;;
51636;SDS011;37713;53.254;6.460;2023-02-15T06:15:48;54.85;;;29.08;;
51636;SDS011;37713;53.254;6.460;2023-02-15T06:18:13;58.15;;;29.85;;
51636;SDS011;37713;53.254;6.460;2023-02-15T06:20:39;60.03;;;31.15;;
51636;SDS011;37713;53.254;6.460;2023-02-15T06:23:05;65.07;;;32.95;;
51636;SDS011;37713;53.254;6.460;2023-02-15T06:25:30;76.70;;;35.75;;
51636;SDS011;37713;53.254;6.460;2023-02-15T06:27:56;82.30;;;40.45;;
51636;SDS011;37713;53.254;6.460;2023-02-15T06:30:22;89.93;;;44.80;;
51636;SDS011;37713;53.254;6.460;2023-02-15T06:32:48;105.40;;;47.30;;
51636;SDS011;37713;53.254;6.460;2023-02-15T06:35:13;151.23;;;50.92;;
51636;SDS011;37713;53.254;6.460;2023-02-15T06:37:39;88.80;;;42.47;;
51636;SDS011;37713;53.254;6.460;2023-02-15T06:40:05;85.75;;;41.03;;
51636;SDS011;37713;53.254;6.460;2023-02-15T06:42:32;79.28;;;38.63;;
51636;SDS011;37713;53.254;6.460;2023-02-15T06:44:57;115.00;;;38.13;;
51636;SDS011;37713;53.254;6.460;2023-02-15T06:47:25;70.53;;;34.72;;
51636;SDS011;37713;53.254;6.460;2023-02-15T06:49:51;76.75;;;34.88;;
51636;SDS011;37713;53.254;6.460;2023-02-15T06:52:16;82.00;;;36.70;;
51636;SDS011;37713;53.254;6.460;2023-02-15T06:54:42;87.57;;;34.75;;
51636;SDS011;37713;53.254;6.460;2023-02-15T06:57:08;97.22;;;35.97;;
51636;SDS011;37713;53.254;6.460;2023-02-15T06:59:34;80.68;;;33.22;;
51636;SDS011;37713;53.254;6.460;2023-02-15T07:02:00;82.88;;;35.63;;
51636;SDS011;37713;53.254;6.460;2023-02-15T07:04:26;76.15;;;35.58;;
51636;SDS011;37713;53.254;6.460;2023-02-15T07:06:53;73.97;;;35.33;;
51636;SDS011;37713;53.254;6.460;2023-02-15T07:09:19;73.80;;;35.80;;
51636;SDS011;37713;53.254;6.460;2023-02-15T07:11:45;71.05;;;35.90;;
51636;SDS011;37713;53.254;6.460;2023-02-15T07:14:29;69.43;;;34.10;;
51636;SDS011;37713;53.254;6.460;2023-02-15T07:16:55;70.30;;;35.22;;
51636;SDS011;37713;53.254;6.460;2023-02-15T07:19:21;74.97;;;36.40;;
51636;SDS011;37713;53.254;6.460;2023-02-15T07:21:46;74.13;;;35.80;;
51636;SDS011;37713;53.254;6.460;2023-02-15T07:24:13;67.65;;;35.03;;
51636;SDS011;37713;53.254;6.460;2023-02-15T07:26:39;67.47;;;35.03;;
51636;SDS011;37713;53.254;6.460;2023-02-15T07:29:05;70.22;;;35.25;;
51636;SDS011;37713;53.254;6.460;2023-02-15T07:31:30;66.43;;;34.90;;
51636;SDS011;37713;53.254;6.460;2023-02-15T07:33:56;69.38;;;35.58;;
51636;SDS011;37713;53.254;6.460;2023-02-15T07:36:22;70.13;;;35.35;;
51636;SDS011;37713;53.254;6.460;2023-02-15T07:38:48;68.03;;;35.00;;
51636;SDS011;37713;53.254;6.460;2023-02-15T07:41:14;61.83;;;33.42;;
51636;SDS011;37713;53.254;6.460;2023-02-15T07:43:41;62.22;;;33.40;;
51636;SDS011;37713;53.254;6.460;2023-02-15T07:46:09;67.97;;;36.38;;
51636;SDS011;37713;53.254;6.460;2023-02-15T07:48:37;76.10;;;38.00;;
51636;SDS011;37713;53.254;6.460;2023-02-15T07:51:04;75.18;;;38.88;;
51636;SDS011;37713;53.254;6.460;2023-02-15T07:53:32;80.43;;;42.67;;
51636;SDS011;37713;53.254;6.460;2023-02-15T07:55:58;92.72;;;46.20;;
51636;SDS011;37713;53.254;6.460;2023-02-15T07:58:25;80.50;;;43.83;;
51636;SDS011;37713;53.254;6.460;2023-02-15T08:01:10;77.68;;;42.38;;
51636;SDS011;37713;53.254;6.460;2023-02-15T08:03:36;74.25;;;41.15;;
51636;SDS011;37713;53.254;6.460;2023-02-15T08:06:02;75.10;;;38.63;;
51636;SDS011;37713;53.254;6.460;2023-02-15T08:08:28;65.80;;;35.83;;
51636;SDS011;37713;53.254;6.460;2023-02-15T08:11:17;62.17;;;34.42;;
51636;SDS011;37713;53.254;6.460;2023-02-15T08:14:12;64.30;;;34.90;;
51636;SDS011;37713;53.254;6.460;2023-02-15T08:19:09;62.25;;;34.58;;
51636;SDS011;37713;53.254;6.460;2023-02-15T08:21:52;63.80;;;35.08;;
51636;SDS011;37713;53.254;6.460;2023-02-15T08:24:22;67.85;;;36.35;;
51636;SDS011;37713;53.254;6.460;2023-02-15T08:26:49;71.85;;;38.60;;
51636;SDS011;37713;53.254;6.460;2023-02-15T08:29:16;82.25;;;40.67;;
51636;SDS011;37713;53.254;6.460;2023-02-15T08:31:44;77.63;;;40.25;;
51636;SDS011;37713;53.254;6.460;2023-02-15T08:34:13;68.28;;;36.70;;
51636;SDS011;37713;53.254;6.460;2023-02-15T08:36:40;66.80;;;34.95;;
51636;SDS011;37713;53.254;6.460;2023-02-15T08:39:06;64.65;;;34.63;;
51636;SDS011;37713;53.254;6.460;2023-02-15T08:41:33;58.58;;;30.92;;
51636;SDS011;37713;53.254;6.460;2023-02-15T08:44:02;57.45;;;32.25;;
51636;SDS011;37713;53.254;6.460;2023-02-15T08:46:30;59.05;;;31.80;;
51636;SDS011;37713;53.254;6.460;2023-02-15T08:48:58;54.88;;;30.55;;
51636;SDS011;37713;53.254;6.460;2023-02-15T08:51:25;61.90;;;32.03;;
51636;SDS011;37713;53.254;6.460;2023-02-15T08:53:56;63.08;;;33.72;;
51636;SDS011;37713;53.254;6.460;2023-02-15T08:56:26;65.05;;;33.50;;
51636;SDS011;37713;53.254;6.460;2023-02-15T08:58:53;67.55;;;36.22;;
51636;SDS011;37713;53.254;6.460;2023-02-15T09:01:23;68.07;;;34.83;;
51636;SDS011;37713;53.254;6.460;2023-02-15T09:03:51;65.47;;;34.97;;
51636;SDS011;37713;53.254;6.460;2023-02-15T09:06:20;66.50;;;36.72;;
51636;SDS011;37713;53.254;6.460;2023-02-15T09:08:47;65.72;;;35.28;;
51636;SDS011;37713;53.254;6.460;2023-02-15T09:13:55;67.78;;;35.22;;
51636;SDS011;37713;53.254;6.460;2023-02-15T09:16:23;61.08;;;34.30;;
51636;SDS011;37713;53.254;6.460;2023-02-15T09:18:51;70.68;;;34.25;;
51636;SDS011;37713;53.254;6.460;2023-02-15T09:21:18;65.20;;;35.38;;
51636;SDS011;37713;53.254;6.460;2023-02-15T09:23:46;64.50;;;34.20;;
51636;SDS011;37713;53.254;6.460;2023-02-15T09:26:13;70.03;;;36.00;;
51636;SDS011;37713;53.254;6.460;2023-02-15T09:28:41;67.18;;;35.13;;
51636;SDS011;37713;53.254;6.460;2023-02-15T09:31:08;69.80;;;36.53;;
51636;SDS011;37713;53.254;6.460;2023-02-15T09:33:36;66.88;;;33.55;;
51636;SDS011;37713;53.254;6.460;2023-02-15T09:36:03;62.47;;;34.70;;
51636;SDS011;37713;53.254;6.460;2023-02-15T09:38:30;66.88;;;35.45;;
51636;SDS011;37713;53.254;6.460;2023-02-15T09:43:54;63.40;;;33.08;;
51636;SDS011;37713;53.254;6.460;2023-02-15T10:00:55;65.22;;;35.67;;
51636;SDS011;37713;53.254;6.460;2023-02-15T10:06:38;65.15;;;35.10;;
51636;SDS011;37713;53.254;6.460;2023-02-15T10:19:54;66.80;;;35.83;;
51636;SDS011;37713;53.254;6.460;2023-02-15T10:27:50;65.22;;;34.75;;
51636;SDS011;37713;53.254;6.460;2023-02-15T10:54:21;67.32;;;36.05;;
51636;SDS011;37713;53.254;6.460;2023-02-15T10:56:59;60.70;;;34.75;;
51636;SDS011;37713;53.254;6.460;2023-02-15T11:02:20;60.67;;;32.92;;
51636;SDS011;37713;53.254;6.460;2023-02-15T11:04:53;63.13;;;34.33;;
51636;SDS011;37713;53.254;6.460;2023-02-15T11:07:25;66.38;;;35.72;;
51636;SDS011;37713;53.254;6.460;2023-02-15T11:10:01;65.20;;;34.70;;
51636;SDS011;37713;53.254;6.460;2023-02-15T11:12:38;63.22;;;35.80;;
51636;SDS011;37713;53.254;6.460;2023-02-15T11:17:52;62.95;;;34.45;;
51636;SDS011;37713;53.254;6.460;2023-02-15T11:20:35;61.22;;;34.38;;
51636;SDS011;37713;53.254;6.460;2023-02-15T11:23:14;66.05;;;35.95;;
51636;SDS011;37713;53.254;6.460;2023-02-15T11:25:43;62.08;;;34.40;;
51636;SDS011;37713;53.254;6.460;2023-02-15T11:28:34;65.90;;;35.83;;
51636;SDS011;37713;53.254;6.460;2023-02-15T11:31:15;64.30;;;34.83;;
51636;SDS011;37713;53.254;6.460;2023-02-15T11:33:46;63.90;;;34.65;;
51636;SDS011;37713;53.254;6.460;2023-02-15T11:36:20;64.03;;;34.22;;
51636;SDS011;37713;53.254;6.460;2023-02-15T11:38:51;61.83;;;34.75;;
51636;SDS011;37713;53.254;6.460;2023-02-15T11:41:24;67.25;;;34.53;;
51636;SDS011;37713;53.254;6.460;2023-02-15T11:43:58;66.15;;;32.53;;
51636;SDS011;37713;53.254;6.460;2023-02-15T11:46:33;66.70;;;34.58;;
51636;SDS011;37713;53.254;6.460;2023-02-15T11:48:59;61.10;;;33.67;;
51636;SDS011;37713;53.254;6.460;2023-02-15T11:51:25;59.72;;;33.10;;
51636;SDS011;37713;53.254;6.460;2023-02-15T11:53:53;64.53;;;33.97;;
51636;SDS011;37713;53.254;6.460;2023-02-15T11:56:22;63.20;;;33.95;;
51636;SDS011;37713;53.254;6.460;2023-02-15T11:58:57;60.15;;;31.73;;
51636;SDS011;37713;53.254;6.460;2023-02-15T12:01:33;58.50;;;31.42;;
51636;SDS011;37713;53.254;6.460;2023-02-15T12:04:10;63.85;;;31.88;;
51636;SDS011;37713;53.254;6.460;2023-02-15T12:06:47;56.28;;;30.80;;
51636;SDS011;37713;53.254;6.460;2023-02-15T12:11:45;56.38;;;28.88;;
51636;SDS011;37713;53.254;6.460;2023-02-15T12:14:11;55.67;;;29.75;;
51636;SDS011;37713;53.254;6.460;2023-02-15T12:21:53;56.33;;;29.70;;
51636;SDS011;37713;53.254;6.460;2023-02-15T12:24:24;53.25;;;28.30;;
51636;SDS011;37713;53.254;6.460;2023-02-15T12:26:56;55.00;;;28.30;;
51636;SDS011;37713;53.254;6.460;2023-02-15T12:29:45;50.65;;;28.23;;
51636;SDS011;37713;53.254;6.460;2023-02-15T12:32:24;54.53;;;27.05;;
51636;SDS011;37713;53.254;6.460;2023-02-15T12:37:39;52.97;;;29.13;;
51636;SDS011;37713;53.254;6.460;2023-02-15T12:40:22;54.33;;;29.20;;
51636;SDS011;37713;53.254;6.460;2023-02-15T12:42:51;51.67;;;28.52;;
51636;SDS011;37713;53.254;6.460;2023-02-15T12:45:24;53.80;;;29.05;;
51636;SDS011;37713;53.254;6.460;2023-02-15T12:50:46;54.78;;;28.38;;
51636;SDS011;37713;53.254;6.460;2023-02-15T12:55:57;56.65;;;29.58;;
51636;SDS011;37713;53.254;6.460;2023-02-15T12:58:34;49.85;;;28.92;;
51636;SDS011;37713;53.254;6.460;2023-02-15T13:01:18;51.05;;;28.08;;
51636;SDS011;37713;53.254;6.460;2023-02-15T13:06:35;53.28;;;28.02;;
51636;SDS011;37713;53.254;6.460;2023-02-15T13:09:06;54.75;;;30.05;;
51636;SDS011;37713;53.254;6.460;2023-02-15T13:11:40;58.35;;;30.63;;
51636;SDS011;37713;53.254;6.460;2023-02-15T13:17:00;56.42;;;31.52;;
51636;SDS011;37713;53.254;6.460;2023-02-15T13:19:42;58.80;;;32.28;;
51636;SDS011;37713;53.254;6.460;2023-02-15T13:22:15;53.40;;;31.00;;
51636;SDS011;37713;53.254;6.460;2023-02-15T13:24:52;55.35;;;30.75;;
51636;SDS011;37713;53.254;6.460;2023-02-15T13:27:23;61.28;;;32.20;;
51636;SDS011;37713;53.254;6.460;2023-02-15T13:29:54;56.95;;;31.67;;
51636;SDS011;37713;53.254;6.460;2023-02-15T13:35:02;54.78;;;31.55;;
51636;SDS011;37713;53.254;6.460;2023-02-15T13:40:46;57.97;;;32.45;;
51636;SDS011;37713;53.254;6.460;2023-02-15T13:43:33;60.45;;;32.80;;
51636;SDS011;37713;53.254;6.460;2023-02-15T13:54:05;61.63;;;33.75;;
51636;SDS011;37713;53.254;6.460;2023-02-15T13:56:53;59.67;;;33.47;;
51636;SDS011;37713;53.254;6.460;2023-02-15T14:02:34;60.33;;;33.30;;
51636;SDS011;37713;53.254;6.460;2023-02-15T14:05:21;60.22;;;33.63;;
51636;SDS011;37713;53.254;6.460;2023-02-15T14:15:41;56.58;;;30.40;;
51636;SDS011;37713;53.254;6.460;2023-02-15T14:24:04;53.47;;;30.70;;
51636;SDS011;37713;53.254;6.460;2023-02-15T14:26:41;51.60;;;30.75;;
51636;SDS011;37713;53.254;6.460;2023-02-15T14:32:05;54.92;;;29.88;;
51636;SDS011;37713;53.254;6.460;2023-02-15T14:37:39;50.42;;;28.50;;
51636;SDS011;37713;53.254;6.460;2023-02-15T14:46:03;47.80;;;26.83;;
51636;SDS011;37713;53.254;6.460;2023-02-15T14:48:45;49.92;;;27.45;;
51636;SDS011;37713;53.254;6.460;2023-02-15T14:54:08;49.40;;;27.45;;
51636;SDS011;37713;53.254;6.460;2023-02-15T15:04:34;50.72;;;28.25;;
51636;SDS011;37713;53.254;6.460;2023-02-15T15:07:24;47.75;;;28.35;;
51636;SDS011;37713;53.254;6.460;2023-02-15T15:31:07;49.15;;;27.13;;
51636;SDS011;37713;53.254;6.460;2023-02-15T15:37:20;47.78;;;27.95;;
51636;SDS011;37713;53.254;6.460;2023-02-15T15:50:44;50.97;;;28.15;;
51636;SDS011;37713;53.254;6.460;2023-02-15T15:53:18;45.60;;;26.45;;
51636;SDS011;37713;53.254;6.460;2023-02-15T15:55:47;45.22;;;26.33;;
51636;SDS011;37713;53.254;6.460;2023-02-15T15:58:16;46.60;;;25.98;;
51636;SDS011;37713;53.254;6.460;2023-02-15T16:00:46;46.67;;;26.58;;
51636;SDS011;37713;53.254;6.460;2023-02-15T16:03:25;46.80;;;26.13;;
51636;SDS011;37713;53.254;6.460;2023-02-15T16:05:52;48.20;;;26.02;;
51636;SDS011;37713;53.254;6.460;2023-02-15T16:08:41;51.50;;;27.95;;
51636;SDS011;37713;53.254;6.460;2023-02-15T16:11:16;49.88;;;26.98;;
51636;SDS011;37713;53.254;6.460;2023-02-15T16:13:47;47.53;;;27.50;;
51636;SDS011;37713;53.254;6.460;2023-02-15T16:16:13;47.53;;;27.98;;
51636;SDS011;37713;53.254;6.460;2023-02-15T16:18:55;48.38;;;27.73;;
51636;SDS011;37713;53.254;6.460;2023-02-15T16:21:27;50.67;;;29.45;;
51636;SDS011;37713;53.254;6.460;2023-02-15T16:29:16;51.40;;;28.90;;
51636;SDS011;37713;53.254;6.460;2023-02-15T16:31:58;50.22;;;29.02;;
51636;SDS011;37713;53.254;6.460;2023-02-15T16:34:24;46.40;;;26.90;;
51636;SDS011;37713;53.254;6.460;2023-02-15T16:37:11;52.55;;;27.67;;
51636;SDS011;37713;53.254;6.460;2023-02-15T16:39:41;55.03;;;30.30;;
51636;SDS011;37713;53.254;6.460;2023-02-15T16:42:08;50.00;;;28.65;;
51636;SDS011;37713;53.254;6.460;2023-02-15T16:44:36;50.60;;;29.05;;
51636;SDS011;37713;53.254;6.460;2023-02-15T16:47:02;51.33;;;28.13;;
51636;SDS011;37713;53.254;6.460;2023-02-15T16:49:28;49.50;;;27.55;;
51636;SDS011;37713;53.254;6.460;2023-02-15T16:51:59;49.20;;;27.38;;
51636;SDS011;37713;53.254;6.460;2023-02-15T16:54:31;48.53;;;27.60;;
51636;SDS011;37713;53.254;6.460;2023-02-15T16:56:58;50.20;;;27.65;;
51636;SDS011;37713;53.254;6.460;2023-02-15T16:59:30;51.53;;;28.67;;
51636;SDS011;37713;53.254;6.460;2023-02-15T17:02:17;52.40;;;29.00;;
51636;SDS011;37713;53.254;6.460;2023-02-15T17:05:06;47.55;;;27.88;;
51636;SDS011;37713;53.254;6.460;2023-02-15T17:07:39;50.63;;;29.05;;
51636;SDS011;37713;53.254;6.460;2023-02-15T17:10:35;51.03;;;28.85;;
51636;SDS011;37713;53.254;6.460;2023-02-15T17:13:16;49.65;;;28.73;;
51636;SDS011;37713;53.254;6.460;2023-02-15T17:18:32;56.28;;;28.98;;
51636;SDS011;37713;53.254;6.460;2023-02-15T17:20:59;50.20;;;29.30;;
51636;SDS011;37713;53.254;6.460;2023-02-15T17:23:40;52.97;;;28.98;;
51636;SDS011;37713;53.254;6.460;2023-02-15T17:26:21;47.85;;;27.42;;
51636;SDS011;37713;53.254;6.460;2023-02-15T17:28:53;52.78;;;30.25;;
51636;SDS011;37713;53.254;6.460;2023-02-15T17:31:22;53.13;;;29.33;;
51636;SDS011;37713;53.254;6.460;2023-02-15T17:33:57;55.03;;;29.67;;
51636;SDS011;37713;53.254;6.460;2023-02-15T17:36:24;53.65;;;29.17;;
51636;SDS011;37713;53.254;6.460;2023-02-15T17:41:23;54.70;;;30.05;;
51636;SDS011;37713;53.254;6.460;2023-02-15T17:43:50;61.40;;;29.65;;
51636;SDS011;37713;53.254;6.460;2023-02-15T17:46:16;57.97;;;30.92;;
51636;SDS011;37713;53.254;6.460;2023-02-15T17:48:49;60.08;;;31.75;;
51636;SDS011;37713;53.254;6.460;2023-02-15T17:51:17;58.63;;;30.88;;
51636;SDS011;37713;53.254;6.460;2023-02-15T17:53:44;55.85;;;30.50;;
51636;SDS011;37713;53.254;6.460;2023-02-15T17:56:31;57.85;;;30.65;;
51636;SDS011;37713;53.254;6.460;2023-02-15T17:58:57;56.85;;;30.58;;
51636;SDS011;37713;53.254;6.460;2023-02-15T18:01:23;56.88;;;31.75;;
51636;SDS011;37713;53.254;6.460;2023-02-15T18:04:08;53.22;;;30.95;;
51636;SDS011;37713;53.254;6.460;2023-02-15T18:06:54;53.20;;;30.45;;
51636;SDS011;37713;53.254;6.460;2023-02-15T18:09:38;58.05;;;32.25;;
51636;SDS011;37713;53.254;6.460;2023-02-15T18:12:24;62.28;;;32.17;;
51636;SDS011;37713;53.254;6.460;2023-02-15T18:14:52;56.30;;;30.80;;
51636;SDS011;37713;53.254;6.460;2023-02-15T18:17:19;55.42;;;31.38;;
51636;SDS011;37713;53.254;6.460;2023-02-15T18:19:51;56.35;;;31.73;;
51636;SDS011;37713;53.254;6.460;2023-02-15T18:22:18;57.53;;;31.05;;
51636;SDS011;37713;53.254;6.460;2023-02-15T18:24:45;54.38;;;31.42;;
51636;SDS011;37713;53.254;6.460;2023-02-15T18:27:12;53.78;;;30.38;;
51636;SDS011;37713;53.254;6.460;2023-02-15T18:29:39;58.60;;;32.10;;